Aérodrome :
LOGIN :

S'inscrire | Disclaimer

   EN    FR    IT 

 










Légende :    VFR   VFR Marginal   IFR   IFR Intensif   IFR Très Intensif
Visi : 
Plafond : 
>= 8 km
>= 3000ft
5 à 8 km
1000 à 3000 ft
1500m à 5 km
500 à 1000 ft
800 à 1500m
200 à 500 ft
< 800m
< 200 ft
Symboles :   Orages  Brouillard  Fortes neiges  Fortes précipitations  Vent > 20 kt
SIGMETs :   Divers  Orages  Givrage  Turbulence  Onde Orograph.  Cendres Volcan.






- Altitude de l'aérodrome : 699 ft
- Code IATA : PAD


EDLP - Paderborn Lippstadt

DERNIER METAR :
  • 172220Z 23016KT 9999 -RA SCT034 BKN041 06/03 Q1014

METARs EXPIRÉS :
  • 172150Z 23015KT 9999 -RA FEW029 BKN033 06/03 Q1014
  • 172120Z 24010KT 9999 -RA BKN029 OVC034 06/03 Q1014
  • 172050Z 23010KT 9999 -RA FEW020 SCT049 05/03 Q1014
  • 172020Z 25014KT 220V280 9999 SCT023 OVC031 06/03 Q1014
  • 171950Z 23015KT 9999 SCT035 BKN045 06/02 Q1013

TAF TAF EDLP
Valide du 17 à 18h jusqu'au 18 à 18h UTC


171700Z 1718/1818 23015G25KT 9999 SCT030
TEMPO 1720/1806 24020G30KT SHRA BKN020CB
PROB30
TEMPO 1806/1809 24020G30KT
TEMPO 1809/1818 24020G30KT SHRA BKN020CB



MET'MAP, la Météo Aéronautique d'un coup d'oeil ! - Copyright ORBIFLY Décembre 2007 - Disclaimer

ORBIFLY MET'MAP TEAM :

Programmation & Développement : Alexandra Zaïnal
Sur une idée originale de : Baudouin d'Aumeries
Assistance à la programmation : Marc-Olivier Méhu
Soutien technique & logistique : Manuel Goepfert

Contact : metmap@orbifly.com




SOURCES & CREDITS :

   NOAA